Time;durP1;ratioP1;P1;durP2;ratioP2;P2;SDS_P1;SDS_P2;PMS_P1;PMS_P2;Temp;Humidity;BMP_temperature;BMP_pressure;BME280_temperature;BME280_humidity;BME280_pressure;Samples;Min_cycle;Max_cycle;Signal;HPM_P1;HPM_P2
2023/05/13 00:02:08;;;;;;;0.00;0.00;;;;;;;;;;6189932;23;20005;-91
2023/05/13 00:04:34;;;;;;;0.00;0.00;;;;;;;;;;6197323;23;20385;-91
2023/05/13 00:07:00;;;;;;;0.00;0.00;;;;;;;;;;6199949;23;20001;-91
2023/05/13 00:09:26;;;;;;;0.00;0.00;;;;;;;;;;6191006;23;20001;-92
2023/05/13 00:11:52;;;;;;;0.00;0.00;;;;;;;;;;6186720;23;20092;-91
2023/05/13 00:14:18;;;;;;;0.00;0.00;;;;;;;;;;6188187;23;20005;-90
2023/05/13 00:16:44;;;;;;;0.00;0.00;;;;;;;;;;6186276;23;20119;-91
2023/05/13 00:19:10;;;;;;;0.00;0.00;;;;;;;;;;6188287;23;19997;-91
2023/05/13 00:21:36;;;;;;;0.00;0.00;;;;;;;;;;6186871;23;20027;-91
2023/05/13 00:24:02;;;;;;;0.00;0.00;;;;;;;;;;6187236;23;19997;-91
2023/05/13 00:26:27;;;;;;;0.00;0.00;;;12.90;99.90;;;;;;6189185;23;20155;-91
2023/05/13 00:28:53;;;;;;;0.00;0.00;;;;;;;;;;6188855;23;20036;-92
2023/05/13 00:31:19;;;;;;;0.00;0.00;;;;;;;;;;6185324;23;20048;-90
2023/05/13 00:33:45;;;;;;;0.00;0.00;;;;;;;;;;6190113;23;20040;-91
2023/05/13 00:36:11;;;;;;;0.00;0.00;;;;;;;;;;6187620;23;20506;-89
2023/05/13 00:38:37;;;;;;;0.00;0.00;;;;;;;;;;6189258;23;20012;-91
2023/05/13 00:41:03;;;;;;;0.00;0.00;;;;;;;;;;6187991;23;20008;-91
2023/05/13 00:43:29;;;;;;;0.00;0.00;;;;;;;;;;6187938;23;20005;-89
2023/05/13 00:45:56;;;;;;;0.00;0.00;;;;;;;;;;6188055;23;20342;-91
2023/05/13 00:48:22;;;;;;;0.00;0.00;;;;;;;;;;6188156;23;20031;-91
2023/05/13 00:50:48;;;;;;;0.00;0.00;;;;;;;;;;6189463;23;20012;-91
2023/05/13 00:53:15;;;;;;;0.00;0.00;;;12.70;99.90;;;;;;6188388;23;20065;-90
2023/05/13 00:55:42;;;;;;;0.10;0.10;;;12.70;99.90;;;;;;6187534;23;20040;-91
2023/05/13 00:58:08;;;;;;;0.00;0.00;;;;;;;;;;6189995;23;20001;-91
2023/05/13 01:00:42;;;;;;;0.00;0.00;;;12.70;99.90;;;;;;6187121;23;20008;-90
2023/05/13 01:03:08;;;;;;;0.00;0.00;;;;;;;;;;6188720;23;19997;-91
2023/05/13 01:05:50;;;;;;;0.00;0.00;;;12.60;99.90;;;;;;6188194;23;20063;-91
2023/05/13 01:08:46;;;;;;;0.00;0.00;;;12.60;99.90;;;;;;6188769;23;20465;-90
2023/05/13 01:11:26;;;;;;;0.00;0.00;;;12.60;99.90;;;;;;6189440;23;20485;-91
2023/05/13 01:14:01;;;;;;;0.00;0.00;;;12.70;99.90;;;;;;6189220;23;20008;-91
2023/05/13 01:16:33;;;;;;;0.08;0.08;;;12.60;99.90;;;;;;6183468;23;20005;-90
2023/05/13 01:19:04;;;;;;;0.00;0.00;;;12.50;99.90;;;;;;6186968;23;20001;-91
2023/05/13 01:21:35;;;;;;;0.00;0.00;;;12.50;99.90;;;;;;6188895;23;20012;-91
2023/05/13 01:24:00;;;;;;;0.00;0.00;;;;;;;;;;6187158;23;20024;-90
2023/05/13 01:26:27;;;;;;;0.00;0.00;;;12.40;99.90;;;;;;6188536;23;20005;-89
2023/05/13 01:28:53;;;;;;;0.00;0.00;;;;;;;;;;6189906;23;20358;-91
2023/05/13 01:31:20;;;;;;;0.00;0.00;;;12.40;99.90;;;;;;6187046;23;20012;-90
2023/05/13 01:33:46;;;;;;;0.00;0.00;;;;;;;;;;6186910;23;20013;-90
2023/05/13 01:36:12;;;;;;;0.00;0.00;;;;;;;;;;6187353;23;20456;-89
2023/05/13 01:38:38;;;;;;;0.00;0.00;;;;;;;;;;6185001;23;20004;-91
2023/05/13 01:41:05;;;;;;;0.00;0.00;;;;;;;;;;6190125;23;20001;-90
2023/05/13 01:43:31;;;;;;;0.00;0.00;;;;;;;;;;6183856;23;20200;-91
2023/05/13 01:45:59;;;;;;;0.00;0.00;;;;;;;;;;6186761;23;20037;-91
2023/05/13 01:48:25;;;;;;;0.00;0.00;;;;;;;;;;6185678;23;20016;-91
2023/05/13 01:50:51;;;;;;;0.00;0.00;;;;;;;;;;6188346;23;20005;-90
2023/05/13 01:53:17;;;;;;;0.00;0.00;;;;;;;;;;6187543;23;20008;-91
2023/05/13 01:55:43;;;;;;;0.00;0.00;;;;;;;;;;6190044;23;20005;-88
2023/05/13 01:58:09;;;;;;;0.00;0.00;;;12.30;99.90;;;;;;6184415;23;20096;-89
2023/05/13 02:00:35;;;;;;;0.00;0.00;;;12.00;99.90;;;;;;6186582;23;20453;-90
2023/05/13 02:03:00;;;;;;;0.00;0.00;;;;;;;;;;6188458;23;20008;-90
2023/05/13 02:05:26;;;;;;;0.00;0.00;;;;;;;;;;6186849;23;20040;-88
2023/05/13 02:07:52;;;;;;;0.00;0.00;;;;;;;;;;6187627;23;20012;-92
2023/05/13 02:10:18;;;;;;;0.00;0.00;;;;;;;;;;6188708;23;20068;-89
2023/05/13 02:12:44;;;;;;;0.00;0.00;;;;;;;;;;6187440;23;20518;-91
2023/05/13 02:15:10;;;;;;;0.00;0.00;;;12.50;99.90;;;;;;6188120;23;20036;-89
2023/05/13 02:17:35;;;;;;;0.00;0.00;;;12.40;99.90;;;;;;6186438;23;20032;-91
2023/05/13 02:20:01;;;;;;;0.00;0.00;;;12.40;99.90;;;;;;6188625;23;20342;-90
2023/05/13 02:22:27;;;;;;;0.00;0.00;;;;;;;;;;6185957;23;20426;-90
2023/05/13 02:24:53;;;;;;;0.00;0.00;;;;;;;;;;6186523;23;20392;-91
2023/05/13 02:27:19;;;;;;;0.00;0.00;;;;;;;;;;6186787;23;20028;-91
2023/05/13 02:29:45;;;;;;;0.00;0.00;;;;;;;;;;6188021;23;20092;-90
2023/05/13 02:32:11;;;;;;;0.00;0.00;;;12.20;99.90;;;;;;6187677;23;20465;-91
2023/05/13 02:34:36;;;;;;;0.00;0.00;;;;;;;;;;6187585;23;20115;-90
2023/05/13 02:37:03;;;;;;;0.00;0.00;;;;;;;;;;6186619;23;20061;-90
2023/05/13 02:39:29;;;;;;;0.00;0.00;;;;;;;;;;6185474;23;20005;-90
2023/05/13 02:41:55;;;;;;;0.00;0.00;;;;;;;;;;6188802;23;20032;-90
2023/05/13 02:44:21;;;;;;;0.00;0.00;;;;;;;;;;6189544;23;20430;-91
2023/05/13 02:46:47;;;;;;;0.00;0.00;;;;;;;;;;6187115;23;20016;-90
2023/05/13 02:49:13;;;;;;;0.00;0.00;;;;;;;;;;6187552;23;20019;-90
2023/05/13 02:51:38;;;;;;;0.00;0.00;;;;;;;;;;6188582;23;20414;-91
2023/05/13 02:54:05;;;;;;;0.00;0.00;;;12.20;99.90;;;;;;6189009;23;20064;-90
2023/05/13 02:56:31;;;;;;;0.00;0.00;;;;;;;;;;6187757;23;20009;-91
2023/05/13 02:58:57;;;;;;;0.00;0.00;;;;;;;;;;6186833;23;20008;-90
2023/05/13 03:01:25;;;;;;;0.00;0.00;;;;;;;;;;6185964;23;19997;-91
2023/05/13 03:03:53;;;;;;;0.00;0.00;;;12.20;99.90;;;;;;6188326;23;20009;-90
2023/05/13 03:06:19;;;;;;;0.00;0.00;;;;;;;;;;6186370;23;20013;-90
2023/05/13 03:08:45;;;;;;;0.00;0.00;;;;;;;;;;6187860;23;20112;-90
2023/05/13 03:11:11;;;;;;;0.00;0.00;;;;;;;;;;6186864;23;20009;-91
2023/05/13 03:13:37;;;;;;;0.00;0.00;;;;;;;;;;6188441;23;20005;-91
2023/05/13 03:16:02;;;;;;;0.00;0.00;;;12.10;99.90;;;;;;6184523;23;20055;-90
2023/05/13 03:18:30;;;;;;;0.00;0.00;;;12.30;99.90;;;;;;6186266;23;20028;-91
2023/05/13 03:20:56;;;;;;;0.00;0.00;;;;;;;;;;6186275;23;20013;-91
2023/05/13 03:23:22;;;;;;;0.00;0.00;;;;;;;;;;6187497;23;20009;-90
2023/05/13 03:25:48;;;;;;;0.00;0.00;;;;;;;;;;6188009;23;20009;-90
2023/05/13 03:28:14;;;;;;;0.00;0.00;;;;;;;;;;6187425;23;20068;-90
2023/05/13 03:30:39;;;;;;;0.00;0.00;;;12.00;99.90;;;;;;6185599;23;20017;-92
2023/05/13 03:33:05;;;;;;;0.00;0.00;;;;;;;;;;6189161;23;20005;-90
2023/05/13 03:35:31;;;;;;;0.00;0.00;;;;;;;;;;6189440;23;20083;-90
2023/05/13 03:37:57;;;;;;;0.00;0.00;;;;;;;;;;6189852;23;20059;-91
2023/05/13 03:40:23;;;;;;;0.00;0.00;;;;;;;;;;6189128;23;20343;-90
2023/05/13 03:42:49;;;;;;;0.00;0.00;;;12.20;99.90;;;;;;6188763;23;20001;-90
2023/05/13 03:45:14;;;;;;;0.00;0.00;;;;;;;;;;6188689;23;20012;-92
2023/05/13 03:47:40;;;;;;;0.00;0.00;;;12.10;99.90;;;;;;6190399;23;20017;-91
2023/05/13 03:50:06;;;;;;;0.00;0.00;;;13.20;99.90;;;;;;6189191;23;20001;-90
2023/05/13 03:52:32;;;;;;;0.00;0.00;;;;;;;;;;6190375;23;20351;-91
2023/05/13 03:54:58;;;;;;;0.00;0.00;;;;;;;;;;6189870;23;20009;-92
2023/05/13 03:57:24;;;;;;;0.00;0.00;;;12.10;99.90;;;;;;6189179;23;20001;-91
2023/05/13 03:59:50;;;;;;;0.00;0.00;;;;;;;;;;6188946;23;19997;-90
2023/05/13 04:02:17;;;;;;;0.00;0.00;;;;;;;;;;6188721;23;20005;-91
2023/05/13 04:04:43;;;;;;;0.00;0.00;;;;;;;;;;6188263;23;20386;-90
2023/05/13 04:07:09;;;;;;;0.00;0.00;;;;;;;;;;6189751;23;20064;-91
2023/05/13 04:09:34;;;;;;;0.00;0.00;;;11.80;99.90;;;;;;6187828;23;20033;-91
2023/05/13 04:12:00;;;;;;;0.00;0.00;;;;;;;;;;6187252;23;20001;-91
2023/05/13 04:14:26;;;;;;;0.00;0.00;;;;;;;;;;6189535;23;20341;-88
2023/05/13 04:16:52;;;;;;;0.00;0.00;;;;;;;;;;6189229;23;20010;-92
2023/05/13 04:19:18;;;;;;;0.00;0.00;;;;;;;;;;6189322;23;20001;-91
2023/05/13 04:21:44;;;;;;;0.00;0.00;;;;;;;;;;6187929;23;20338;-91
2023/05/13 04:24:10;;;;;;;0.00;0.00;;;;;;;;;;6189764;23;20012;-90
2023/05/13 04:26:37;;;;;;;0.00;0.00;;;12.20;99.90;;;;;;6188855;23;20020;-90
2023/05/13 04:29:03;;;;;;;0.00;0.00;;;;;;;;;;6190913;23;20009;-90
2023/05/13 04:31:28;;;;;;;0.00;0.00;;;;;;;;;;6188566;23;20036;-89
2023/05/13 04:33:54;;;;;;;0.00;0.00;;;;;;;;;;6191258;23;20457;-90
2023/05/13 04:36:20;;;;;;;0.00;0.00;;;;;;;;;;6190474;23;20435;-91
2023/05/13 04:38:46;;;;;;;0.00;0.00;;;;;;;;;;6188848;23;20059;-89
2023/05/13 04:41:12;;;;;;;0.00;0.00;;;12.20;99.90;;;;;;6187679;23;20025;-89
2023/05/13 04:43:38;;;;;;;0.00;0.00;;;;;;;;;;6186768;23;20001;-89
2023/05/13 04:46:04;;;;;;;0.00;0.00;;;;;;;;;;6186616;23;20008;-91
2023/05/13 04:48:30;;;;;;;0.00;0.00;;;;;;;;;;6185609;23;20016;-91
2023/05/13 04:50:57;;;;;;;0.00;0.00;;;;;;;;;;6192234;23;20472;-90
2023/05/13 04:53:23;;;;;;;0.00;0.00;;;;;;;;;;6202851;23;19997;-91
2023/05/13 04:55:49;;;;;;;0.00;0.00;;;;;;;;;;6205007;23;19997;-90
2023/05/13 04:58:15;;;;;;;0.00;0.00;;;;;;;;;;6207103;23;20009;-90
2023/05/13 05:00:41;;;;;;;0.00;0.00;;;;;;;;;;6196601;23;20005;-90
2023/05/13 05:03:07;;;;;;;0.00;0.00;;;;;;;;;;6188554;23;20063;-92
2023/05/13 05:05:33;;;;;;;0.00;0.00;;;13.10;99.90;;;;;;6188904;23;20067;-90
2023/05/13 05:07:58;;;;;;;0.00;0.00;;;;;;;;;;6185784;23;20047;-91
2023/05/13 05:10:24;;;;;;;0.00;0.00;;;12.60;99.90;;;;;;6186904;23;20020;-90
2023/05/13 05:12:50;;;;;;;0.00;0.00;;;12.70;99.90;;;;;;6188339;23;20138;-91
2023/05/13 05:15:16;;;;;;;0.00;0.00;;;;;;;;;;6186491;23;20021;-91
2023/05/13 05:17:42;;;;;;;0.00;0.00;;;;;;;;;;6187147;23;20001;-91
2023/05/13 05:20:09;;;;;;;0.00;0.00;;;;;;;;;;6184005;23;20001;-90
2023/05/13 05:22:35;;;;;;;0.00;0.00;;;;;;;;;;6186854;23;20004;-91
2023/05/13 05:25:02;;;;;;;0.00;0.00;;;;;;;;;;6184742;23;20005;-91
2023/05/13 05:27:28;;;;;;;0.00;0.00;;;;;;;;;;6184664;23;20062;-89
2023/05/13 05:29:54;;;;;;;0.00;0.00;;;;;;;;;;6188867;23;20005;-90
2023/05/13 05:32:20;;;;;;;0.00;0.00;;;;;;;;;;6197680;23;20438;-89
2023/05/13 05:34:46;;;;;;;0.00;0.00;;;;;;;;;;6192468;23;20035;-91
2023/05/13 05:37:12;;;;;;;0.00;0.00;;;;;;;;;;6189622;23;20315;-91
2023/05/13 05:39:37;;;;;;;0.00;0.00;;;12.80;99.90;;;;;;6186174;23;20433;-91
2023/05/13 05:42:03;;;;;;;0.00;0.00;;;;;;;;;;6187139;23;20032;-91
2023/05/13 05:44:29;;;;;;;0.00;0.00;;;;;;;;;;6184940;23;20121;-91
2023/05/13 05:46:55;;;;;;;0.00;0.00;;;;;;;;;;6187608;23;19998;-92
2023/05/13 05:49:20;;;;;;;0.00;0.00;;;12.90;99.90;;;;;;6188081;23;20005;-91
2023/05/13 05:51:46;;;;;;;0.00;0.00;;;;;;;;;;6187036;23;20083;-91
2023/05/13 05:54:12;;;;;;;0.00;0.00;;;12.90;99.90;;;;;;6185839;23;20009;-91
2023/05/13 05:56:38;;;;;;;0.00;0.00;;;;;;;;;;6187830;23;20056;-90
2023/05/13 05:59:04;;;;;;;0.00;0.00;;;;;;;;;;6187724;23;20012;-90
2023/05/13 06:01:35;;;;;;;0.00;0.00;;;;;;;;;;6187583;23;20001;-90
2023/05/13 06:04:01;;;;;;;0.00;0.00;;;;;;;;;;6190200;23;20020;-91
2023/05/13 06:06:27;;;;;;;0.00;0.00;;;;;;;;;;6187959;23;20009;-92
2023/05/13 06:08:53;;;;;;;0.00;0.00;;;;;;;;;;6187797;23;20013;-91
2023/05/13 06:11:19;;;;;;;0.00;0.00;;;;;;;;;;6187138;23;20062;-90
2023/05/13 06:13:45;;;;;;;0.00;0.00;;;;;;;;;;6187299;23;20401;-91
2023/05/13 06:16:11;;;;;;;0.00;0.00;;;;;;;;;;6187111;23;20088;-90
2023/05/13 06:18:36;;;;;;;0.00;0.00;;;13.50;99.90;;;;;;6187997;23;20442;-91
2023/05/13 06:21:02;;;;;;;0.00;0.00;;;;;;;;;;6187466;23;20001;-90
2023/05/13 06:23:28;;;;;;;0.00;0.00;;;;;;;;;;6185182;23;20005;-90
2023/05/13 06:28:22;;;;;;;0.00;0.00;;;;;;;;;;6184603;23;20020;-88
2023/05/13 06:30:48;;;;;;;0.00;0.00;;;;;;;;;;6181377;23;20005;-88
2023/05/13 06:33:14;;;;;;;0.00;0.00;;;13.90;99.90;;;;;;6183072;23;20009;-87
2023/05/13 06:35:40;;;;;;;0.00;0.00;;;13.90;99.90;;;;;;6156867;23;20441;-88
2023/05/13 06:38:05;;;;;;;0.00;0.00;;;14.00;99.90;;;;;;6132727;23;20377;-87
2023/05/13 06:40:31;;;;;;;0.00;0.00;;;13.90;99.90;;;;;;6156616;23;20013;-86
2023/05/13 06:42:56;;;;;;;0.00;0.00;;;14.00;99.90;;;;;;6157400;23;20005;-86
2023/05/13 06:45:24;;;;;;;0.00;0.00;;;14.10;99.90;;;;;;6156755;23;20430;-88
2023/05/13 06:47:51;;;;;;;0.00;0.00;;;14.20;99.90;;;;;;6155558;23;20496;-88
2023/05/13 06:50:16;;;;;;;0.00;0.00;;;14.10;99.90;;;;;;6158446;23;20005;-88
2023/05/13 06:52:42;;;;;;;0.00;0.00;;;14.10;99.90;;;;;;6157770;23;20088;-87
2023/05/13 06:55:09;;;;;;;0.00;0.00;;;14.20;99.90;;;;;;6157809;23;20009;-88
2023/05/13 06:57:34;;;;;;;0.00;0.00;;;14.30;99.90;;;;;;6157057;23;20531;-87
2023/05/13 07:00:00;;;;;;;0.00;0.00;;;14.30;99.90;;;;;;6155165;23;20011;-88
2023/05/13 07:02:25;;;;;;;0.00;0.00;;;14.30;99.90;;;;;;6180022;23;20048;-87
2023/05/13 07:04:51;;;;;;;0.00;0.00;;;14.40;99.90;;;;;;6156598;23;20437;-87
2023/05/13 07:07:17;;;;;;;0.00;0.00;;;14.60;99.90;;;;;;6154466;23;20016;-87
2023/05/13 07:09:42;;;;;;;0.00;0.00;;;14.70;99.90;;;;;;6158088;23;20005;-87
2023/05/13 07:12:10;;;;;;;0.00;0.00;;;14.60;99.90;;;;;;6157860;23;20373;-87
2023/05/13 07:14:35;;;;;;;0.00;0.00;;;14.70;99.90;;;;;;6157937;23;20005;-87
2023/05/13 07:17:02;;;;;;;0.00;0.00;;;14.70;99.90;;;;;;6158448;23;20352;-87
2023/05/13 07:19:27;;;;;;;0.00;0.00;;;14.80;99.90;;;;;;6158908;23;20009;-88
2023/05/13 07:21:53;;;;;;;0.00;0.00;;;14.80;99.90;;;;;;6183059;23;20009;-87
2023/05/13 07:24:18;;;;;;;0.00;0.00;;;14.90;99.90;;;;;;6158262;23;20668;-87
2023/05/13 07:26:44;;;;;;;0.00;0.00;;;15.00;99.90;;;;;;6158476;23;20013;-87
2023/05/13 07:29:09;;;;;;;0.00;0.00;;;15.10;99.90;;;;;;6159319;23;20028;-87
2023/05/13 07:31:35;;;;;;;0.00;0.00;;;15.20;99.90;;;;;;6159661;23;20008;-86
2023/05/13 07:34:01;;;;;;;0.00;0.00;;;;;;;;;;6157525;23;20016;-86
2023/05/13 07:36:26;;;;;;;0.00;0.00;;;15.30;99.90;;;;;;6159538;23;20294;-88
2023/05/13 07:38:52;;;;;;;0.00;0.00;;;;;;;;;;6157418;23;20491;-88
2023/05/13 07:41:18;;;;;;;0.00;0.00;;;15.20;99.90;;;;;;6159038;23;20001;-87
2023/05/13 07:43:43;;;;;;;0.00;0.00;;;15.40;99.90;;;;;;6158805;23;20020;-88
2023/05/13 07:46:09;;;;;;;0.00;0.00;;;;;;;;;;6158183;23;20318;-87
2023/05/13 07:48:35;;;;;;;0.00;0.00;;;15.50;99.90;;;;;;6159746;23;20003;-87
2023/05/13 07:51:00;;;;;;;0.00;0.00;;;15.60;99.90;;;;;;6160353;23;20322;-86
2023/05/13 07:53:26;;;;;;;0.00;0.00;;;15.60;99.90;;;;;;6159454;23;20088;-86
2023/05/13 07:55:51;;;;;;;0.00;0.00;;;15.70;99.90;;;;;;6159688;23;20080;-88
2023/05/13 07:58:19;;;;;;;0.00;0.00;;;;;;;;;;6158945;23;20039;-87
2023/05/13 08:00:44;;;;;;;0.00;0.00;;;15.50;99.90;;;;;;6160687;23;20001;-87
2023/05/13 08:03:11;;;;;;;0.00;0.00;;;15.40;99.90;;;;;;6159769;23;20441;-86
2023/05/13 08:05:36;;;;;;;0.00;0.00;;;15.80;99.90;;;;;;6160980;23;20016;-88
2023/05/13 08:08:03;;;;;;;0.00;0.00;;;15.70;99.90;;;;;;6160386;23;20012;-86
2023/05/13 08:10:29;;;;;;;0.00;0.00;;;15.90;99.90;;;;;;6158352;23;20043;-87
2023/05/13 08:12:56;;;;;;;0.00;0.00;;;16.20;99.50;;;;;;6157432;23;20016;-86
2023/05/13 08:15:22;;;;;;;0.00;0.00;;;16.30;99.80;;;;;;6157718;23;20031;-87
2023/05/13 08:17:48;;;;;;;0.00;0.00;;;16.30;99.20;;;;;;6155868;23;20052;-86
2023/05/13 08:20:14;;;;;;;0.00;0.00;;;;;;;;;;6157764;23;20005;-90
2023/05/13 08:22:41;;;;;;;0.00;0.00;;;16.40;98.90;;;;;;6156160;23;20044;-88
2023/05/13 08:25:07;;;;;;;0.00;0.00;;;16.50;98.90;;;;;;6183823;23;20015;-86
2023/05/13 08:27:34;;;;;;;0.00;0.00;;;16.60;98.20;;;;;;6158452;23;20408;-87
2023/05/13 08:29:59;;;;;;;0.00;0.00;;;16.70;98.20;;;;;;6156550;23;20017;-87
2023/05/13 08:32:25;;;;;;;0.00;0.00;;;16.80;98.70;;;;;;6160163;23;20433;-87
2023/05/13 08:34:50;;;;;;;0.00;0.00;;;17.00;97.70;;;;;;6157521;23;20009;-87
2023/05/13 08:37:16;;;;;;;0.00;0.00;;;17.00;96.40;;;;;;6157826;23;20084;-87
2023/05/13 08:39:41;;;;;;;0.00;0.00;;;17.00;96.70;;;;;;6154956;23;20031;-87
2023/05/13 08:42:07;;;;;;;0.00;0.00;;;17.00;97.50;;;;;;6158076;23;20061;-88
2023/05/13 08:44:38;;;;;;;0.00;0.00;;;17.20;96.70;;;;;;6157742;23;20001;-87
2023/05/13 08:47:14;;;;;;;0.00;0.00;;;17.30;96.30;;;;;;6158463;23;20001;-88
2023/05/13 08:49:40;;;;;;;0.00;0.00;;;17.40;96.60;;;;;;6159087;23;20052;-87
2023/05/13 08:52:06;;;;;;;0.00;0.00;;;17.50;95.10;;;;;;6183200;23;20009;-88
2023/05/13 08:54:31;;;;;;;0.00;0.00;;;17.50;95.60;;;;;;6157074;23;20448;-87
2023/05/13 08:56:57;;;;;;;0.00;0.00;;;17.60;95.80;;;;;;6157548;23;20009;-87
2023/05/13 08:59:22;;;;;;;0.00;0.00;;;17.80;95.70;;;;;;6156782;23;20344;-86
2023/05/13 09:01:49;;;;;;;0.00;0.00;;;17.80;95.90;;;;;;6154747;23;20047;-86
2023/05/13 09:04:17;;;;;;;0.00;0.00;;;17.80;95.00;;;;;;6157682;23;20071;-88
2023/05/13 09:06:44;;;;;;;0.00;0.00;;;17.90;95.30;;;;;;6156627;23;20459;-86
2023/05/13 09:09:10;;;;;;;0.00;0.00;;;;;;;;;;6153718;23;20499;-85
2023/05/13 09:11:38;;;;;;;0.00;0.00;;;18.10;95.70;;;;;;6158971;23;20009;-85
2023/05/13 09:14:06;;;;;;;0.00;0.00;;;18.10;96.20;;;;;;6180415;23;20029;-85
2023/05/13 09:16:32;;;;;;;0.00;0.00;;;18.20;95.40;;;;;;6155858;23;20005;-86
2023/05/13 09:19:00;;;;;;;0.00;0.00;;;18.30;95.50;;;;;;6155907;23;20009;-88
2023/05/13 09:21:28;;;;;;;0.00;0.00;;;18.40;95.30;;;;;;6157047;23;20001;-88
2023/05/13 09:24:11;;;;;;;0.00;0.00;;;18.60;94.60;;;;;;6159010;23;20005;-86
2023/05/13 09:26:40;;;;;;;0.00;0.00;;;18.70;94.80;;;;;;6157602;23;20040;-87
2023/05/13 09:29:23;;;;;;;;;;;18.80;94.00;;;;;;6157232;23;20015;-87
2023/05/13 09:31:51;;;;;;;0.00;0.00;;;18.80;94.40;;;;;;6157711;23;19904;-85
2023/05/13 09:34:26;;;;;;;0.00;0.00;;;18.70;94.60;;;;;;6158376;23;20444;-87
2023/05/13 09:37:02;;;;;;;0.00;0.00;;;18.90;93.80;;;;;;6157104;23;20005;-88
2023/05/13 09:39:29;;;;;;;0.00;0.00;;;19.00;94.20;;;;;;6157727;23;20005;-88
2023/05/13 09:41:55;;;;;;;0.00;0.00;;;19.10;93.50;;;;;;6155739;23;20024;-85
2023/05/13 09:44:21;;;;;;;0.00;0.00;;;;;;;;;;6181587;23;20029;-88
2023/05/13 09:46:47;;;;;;;0.00;0.00;;;19.10;93.20;;;;;;6159616;23;20589;-88
2023/05/13 09:49:14;;;;;;;0.00;0.00;;;19.10;94.20;;;;;;6156855;23;20055;-89
2023/05/13 09:51:42;;;;;;;0.00;0.00;;;19.10;95.30;;;;;;6157548;23;20013;-85
2023/05/13 09:54:08;;;;;;;0.00;0.00;;;19.40;93.50;;;;;;6157261;23;20067;-87
2023/05/13 09:56:35;;;;;;;0.00;0.00;;;19.40;93.90;;;;;;6156896;23;20013;-87
2023/05/13 09:59:01;;;;;;;0.00;0.00;;;19.80;93.90;;;;;;6157447;23;19997;-87
2023/05/13 10:01:28;;;;;;;0.00;0.00;;;19.50;93.30;;;;;;6156600;23;20404;-88
2023/05/13 10:03:55;;;;;;;0.00;0.00;;;19.60;92.80;;;;;;6157893;23;20005;-87
2023/05/13 10:06:24;;;;;;;0.00;0.00;;;19.70;92.80;;;;;;6155130;23;20058;-88
2023/05/13 10:08:51;;;;;;;0.00;0.00;;;19.70;92.90;;;;;;6155935;23;20012;-89
2023/05/13 10:11:18;;;;;;;0.00;0.00;;;19.80;92.60;;;;;;6159007;23;20027;-88
2023/05/13 10:14:02;;;;;;;0.00;0.00;;;19.70;92.90;;;;;;6134132;23;20016;-87
2023/05/13 10:16:28;;;;;;;0.00;0.00;;;19.90;92.60;;;;;;6183834;23;20008;-90
2023/05/13 10:18:56;;;;;;;0.00;0.00;;;19.90;92.40;;;;;;6155438;23;20012;-88
2023/05/13 10:21:25;;;;;;;0.00;0.00;;;20.00;91.40;;;;;;6154993;23;20009;-90
2023/05/13 10:23:51;;;;;;;0.00;0.00;;;20.00;90.80;;;;;;6182069;23;20001;-86
2023/05/13 10:26:19;;;;;;;0.00;0.00;;;20.10;91.30;;;;;;6154950;23;20521;-86
2023/05/13 10:28:44;;;;;;;0.00;0.00;;;20.20;90.80;;;;;;6156848;23;20068;-86
2023/05/13 10:31:10;;;;;;;0.00;0.00;;;20.10;91.60;;;;;;6157045;23;20040;-87
2023/05/13 10:33:35;;;;;;;0.00;0.00;;;20.30;91.50;;;;;;6156991;23;20016;-87
2023/05/13 10:36:22;;;;;;;0.00;0.00;;;20.30;92.70;;;;;;6156203;23;20005;-86
2023/05/13 10:39:17;;;;;;;0.00;0.00;;;20.30;92.90;;;;;;6156621;23;20015;-87
2023/05/13 10:42:08;;;;;;;0.00;0.00;;;20.40;92.50;;;;;;6180712;23;20013;-87
2023/05/13 10:44:34;;;;;;;0.00;0.00;;;20.40;91.80;;;;;;6157018;23;20059;-90
2023/05/13 10:47:01;;;;;;;0.00;0.00;;;20.50;92.80;;;;;;6156446;23;20012;-90
2023/05/13 10:49:34;;;;;;;0.00;0.00;;;20.50;91.20;;;;;;6155649;23;20007;-89
2023/05/13 10:52:07;;;;;;;0.00;0.00;;;20.60;91.40;;;;;;6154518;23;20004;-87
2023/05/13 10:54:37;;;;;;;0.00;0.00;;;20.60;90.90;;;;;;6156342;23;20515;-87
2023/05/13 10:57:03;;;;;;;0.00;0.00;;;20.70;90.90;;;;;;6156208;23;20092;-86
2023/05/13 10:59:29;;;;;;;0.00;0.00;;;20.80;90.70;;;;;;6155197;23;20028;-87
2023/05/13 11:01:55;;;;;;;0.00;0.00;;;20.80;91.60;;;;;;6155140;23;20001;-85
2023/05/13 11:04:21;;;;;;;0.00;0.00;;;20.80;90.20;;;;;;6156591;23;20060;-88
2023/05/13 11:06:48;;;;;;;0.00;0.00;;;20.70;91.80;;;;;;6154699;23;20009;-87
2023/05/13 11:09:21;;;;;;;0.00;0.00;;;20.90;92.30;;;;;;6155734;23;20032;-86
2023/05/13 11:11:54;;;;;;;0.00;0.00;;;21.00;91.10;;;;;;6156313;23;20005;-86
2023/05/13 11:14:21;;;;;;;0.00;0.00;;;21.10;90.90;;;;;;6156992;23;20012;-87
2023/05/13 11:17:07;;;;;;;0.00;0.00;;;21.20;90.20;;;;;;6155530;23;20472;-89
2023/05/13 11:19:53;;;;;;;0.00;0.00;;;21.40;90.30;;;;;;6156156;23;20008;-87
2023/05/13 11:22:21;;;;;;;0.00;0.00;;;21.20;90.30;;;;;;6182127;23;20001;-85
2023/05/13 11:25:07;;;;;;;0.00;0.00;;;21.20;88.10;;;;;;6156413;23;20032;-87
2023/05/13 11:27:41;;;;;;;0.00;0.00;;;21.20;85.70;;;;;;6155918;23;20464;-86
2023/05/13 11:30:26;;;;;;;0.00;0.00;;;21.40;90.10;;;;;;6156292;23;20830;-87
2023/05/13 11:33:00;;;;;;;0.00;0.00;;;21.40;90.10;;;;;;6157289;23;20012;-86
2023/05/13 11:35:27;;;;;;;0.00;0.00;;;21.60;86.20;;;;;;6156843;23;20083;-87
2023/05/13 11:37:54;;;;;;;0.00;0.00;;;21.60;86.70;;;;;;6157099;23;20190;-87
2023/05/13 11:40:22;;;;;;;0.00;0.00;;;21.80;87.10;;;;;;6156211;23;20012;-86
2023/05/13 11:42:47;;;;;;;0.00;0.00;;;21.90;86.00;;;;;;6157007;23;20013;-87
2023/05/13 11:45:14;;;;;;;0.00;0.00;;;21.80;86.20;;;;;;6181266;23;20067;-87
2023/05/13 11:47:39;;;;;;;0.00;0.00;;;21.90;88.70;;;;;;6155289;23;20005;-87
2023/05/13 11:50:26;;;;;;;0.00;0.00;;;22.20;83.60;;;;;;6156051;23;20322;-88
2023/05/13 11:52:53;;;;;;;0.00;0.00;;;22.30;83.60;;;;;;6154879;23;20009;-87
2023/05/13 11:55:30;;;;;;;0.00;0.00;;;22.40;81.40;;;;;;6150522;23;20504;-86
2023/05/13 11:57:57;;;;;;;0.00;0.00;;;22.40;80.40;;;;;;6177901;23;20464;-87
2023/05/13 12:00:28;;;;;;;0.00;0.00;;;22.40;81.10;;;;;;6155754;23;20039;-85
2023/05/13 12:02:54;;;;;;;0.00;0.00;;;22.40;81.00;;;;;;6156505;23;20445;-87
2023/05/13 12:05:20;;;;;;;0.00;0.00;;;22.20;81.40;;;;;;6183244;23;20012;-86
2023/05/13 12:07:45;;;;;;;0.00;0.00;;;22.40;81.60;;;;;;6156275;23;20429;-85
2023/05/13 12:10:11;;;;;;;0.00;0.00;;;22.40;79.70;;;;;;6156821;23;20088;-86
2023/05/13 12:12:39;;;;;;;0.00;0.00;;;22.50;81.50;;;;;;6180639;23;20439;-86
2023/05/13 12:15:07;;;;;;;0.00;0.00;;;22.50;79.50;;;;;;6177632;23;20087;-87
2023/05/13 12:17:33;;;;;;;0.00;0.00;;;22.50;76.70;;;;;;6155889;23;20024;-86
2023/05/13 12:20:10;;;;;;;0.00;0.00;;;22.20;75.90;;;;;;6156854;23;20004;-86
2023/05/13 12:22:43;;;;;;;0.00;0.00;;;22.00;82.20;;;;;;6181506;23;20081;-85
2023/05/13 12:25:33;;;;;;;0.00;0.00;;;22.00;83.20;;;;;;6153748;23;19997;-86
2023/05/13 12:28:05;;;;;;;0.00;0.00;;;22.00;84.00;;;;;;6154753;23;20381;-87
2023/05/13 12:30:36;;;;;;;0.00;0.00;;;22.30;86.40;;;;;;6155066;23;20001;-86
2023/05/13 12:33:03;;;;;;;0.00;0.00;;;22.60;86.30;;;;;;6157734;23;20028;-88
2023/05/13 12:35:29;;;;;;;0.00;0.00;;;23.10;84.20;;;;;;6158953;23;20012;-85
2023/05/13 12:38:02;;;;;;;0.00;0.00;;;23.10;84.90;;;;;;6158413;23;20088;-86
2023/05/13 12:40:28;;;;;;;0.00;0.00;;;23.10;82.90;;;;;;6158432;23;20001;-85
2023/05/13 12:42:58;;;;;;;0.00;0.00;;;23.10;82.90;;;;;;6158393;23;20008;-86
2023/05/13 12:45:31;;;;;;;0.00;0.00;;;22.90;83.70;;;;;;6156138;23;20009;-86
2023/05/13 12:47:58;;;;;;;0.00;0.00;;;23.00;84.30;;;;;;6158728;23;20433;-88
2023/05/13 12:50:24;;;;;;;0.00;0.00;;;23.00;80.30;;;;;;6159553;23;20012;-88
2023/05/13 12:52:50;;;;;;;0.00;0.00;;;23.00;81.10;;;;;;6160674;23;20051;-88
2023/05/13 12:55:16;;;;;;;0.00;0.00;;;23.10;79.40;;;;;;6161380;23;20019;-90
2023/05/13 12:57:43;;;;;;;0.00;0.00;;;22.90;82.20;;;;;;6160472;23;20017;-88
2023/05/13 13:00:09;;;;;;;0.00;0.00;;;23.00;81.70;;;;;;6160290;23;20005;-88
2023/05/13 13:02:36;;;;;;;0.00;0.00;;;23.00;82.20;;;;;;6158879;23;20008;-88
2023/05/13 13:05:02;;;;;;;0.00;0.00;;;23.10;81.00;;;;;;6159521;23;20009;-87
2023/05/13 13:07:27;;;;;;;0.00;0.00;;;23.00;79.80;;;;;;6160052;23;20005;-88
2023/05/13 13:09:54;;;;;;;0.00;0.00;;;23.20;82.00;;;;;;6160325;23;20009;-88
2023/05/13 13:12:19;;;;;;;0.00;0.00;;;23.30;75.30;;;;;;6160673;23;20322;-87
2023/05/13 13:14:45;;;;;;;0.00;0.00;;;23.30;77.00;;;;;;6158499;23;20007;-87
2023/05/13 13:17:11;;;;;;;0.00;0.00;;;23.30;77.90;;;;;;6159019;23;20092;-87
2023/05/13 13:19:37;;;;;;;0.00;0.00;;;23.30;78.40;;;;;;6159179;23;20052;-87
2023/05/13 13:22:03;;;;;;;0.00;0.00;;;23.40;74.10;;;;;;6156543;23;20001;-88
2023/05/13 13:24:29;;;;;;;0.00;0.00;;;;;;;;;;6159797;23;20005;-87
2023/05/13 13:26:54;;;;;;;0.00;0.00;;;23.80;77.70;;;;;;6158242;23;20021;-86
2023/05/13 13:29:20;;;;;;;0.00;0.00;;;23.90;71.70;;;;;;6159124;23;20544;-87
2023/05/13 13:31:45;;;;;;;0.00;0.00;;;23.90;75.50;;;;;;6158513;23;20001;-86
2023/05/13 13:34:12;;;;;;;0.00;0.00;;;24.10;74.80;;;;;;6157348;23;20088;-87